Time;durP1;ratioP1;P1;durP2;ratioP2;P2;SDS_P1;SDS_P2;PMS_P1;PMS_P2;Temp;Humidity;BMP_temperature;BMP_pressure;BME280_temperature;BME280_humidity;BME280_pressure;Samples;Min_cycle;Max_cycle;Signal;HPM_P1;HPM_P2
2022/05/31 00:00:03;;;;;;;4.97;3.53;;;;;;;8.70;56.11;99707.53;10429812;28;20145;-77
2022/05/31 00:05:07;;;;;;;4.90;3.30;;;;;;;8.75;56.03;99707.28;10428773;28;20451;-78
2022/05/31 00:10:12;;;;;;;5.82;3.40;;;;;;;8.68;55.94;99698.13;10434648;28;20069;-77
2022/05/31 00:15:16;;;;;;;6.03;3.60;;;;;;;8.54;56.54;99698.03;10430591;28;20104;-77
2022/05/31 00:20:19;;;;;;;6.90;4.10;;;;;;;8.53;56.27;99693.75;10433087;28;20049;-78
2022/05/31 00:25:22;;;;;;;6.32;3.70;;;;;;;8.49;56.76;99689.63;10432687;28;20477;-78
2022/05/31 00:30:23;;;;;;;5.78;3.30;;;;;;;8.55;56.72;99684.06;10435081;28;20115;-78
2022/05/31 00:35:29;;;;;;;5.35;3.58;;;;;;;8.42;57.00;99698.72;10431904;28;20052;-78
2022/05/31 00:40:33;;;;;;;5.10;3.58;;;;;;;8.41;57.25;99699.63;10432846;28;20052;-78
2022/05/31 00:45:46;;;;;;;6.63;3.67;;;;;;;8.36;57.40;99706.88;10433017;28;20091;-77
2022/05/31 00:51:02;;;;;;;5.50;3.53;;;;;;;8.46;57.67;99702.84;10433334;28;20151;-77
2022/05/31 00:56:11;;;;;;;5.43;3.50;;;;;;;8.51;57.19;99711.22;10431432;28;20929;-78
2022/05/31 01:01:17;;;;;;;5.78;3.40;;;;;;;8.51;56.85;99708.63;10431743;28;20889;-78
2022/05/31 01:06:20;;;;;;;5.38;3.83;;;;;;;8.28;56.79;99709.03;10432022;28;20049;-78
2022/05/31 01:11:31;;;;;;;5.63;3.65;;;;;;;8.08;58.13;99711.84;10431234;28;20057;-78
2022/05/31 01:16:34;;;;;;;5.05;3.70;;;;;;;8.17;57.84;99712.22;10433359;28;20065;-79
2022/05/31 01:21:39;;;;;;;5.35;3.65;;;;;;;8.26;57.59;99713.50;10432746;28;20142;-78
2022/05/31 01:26:58;;;;;;;6.93;3.80;;;;;;;8.27;58.01;99713.41;10432184;28;20076;-77
2022/05/31 01:32:05;;;;;;;5.13;3.58;;;;;;;8.19;57.95;99709.53;10432534;28;20080;-78
2022/05/31 01:37:08;;;;;;;6.03;3.97;;;;;;;8.23;57.63;99703.22;10436173;28;20053;-78
2022/05/31 01:42:19;;;;;;;5.57;4.22;;;;;;;7.86;58.34;99702.53;10431579;28;20076;-78
2022/05/31 01:47:22;;;;;;;5.85;3.90;;;;;;;7.92;58.07;99691.81;10431810;28;20089;-78
2022/05/31 01:52:24;;;;;;;6.80;3.95;;;;;;;7.77;57.83;99690.00;10432722;28;20091;-78
2022/05/31 01:57:32;;;;;;;5.28;3.72;;;;;;;7.74;58.56;99684.13;10432294;28;20053;-78
2022/05/31 02:02:36;;;;;;;5.88;3.38;;;;;;;7.81;58.18;99694.13;10431384;28;20056;-78
2022/05/31 02:07:38;;;;;;;5.38;3.65;;;;;;;7.88;58.09;99682.47;10438633;28;20061;-78
2022/05/31 02:12:40;;;;;;;7.80;3.55;;;;;;;7.94;58.07;99684.75;10437187;28;20130;-78
2022/05/31 02:17:43;;;;;;;5.20;3.70;;;;;;;7.91;57.78;99684.09;10439393;28;20079;-78
2022/05/31 02:22:45;;;;;;;6.03;3.63;;;;;;;7.80;58.11;99674.22;10437541;28;21011;-78
2022/05/31 02:27:48;;;;;;;6.32;3.58;;;;;;;7.80;58.03;99683.78;10436933;28;20111;-78
2022/05/31 02:32:51;;;;;;;7.60;3.60;;;;;;;7.69;57.99;99676.53;10444757;28;20075;-78
2022/05/31 02:37:53;;;;;;;6.18;3.70;;;;;;;7.61;58.07;99681.28;10444159;28;20048;-78
2022/05/31 02:42:55;;;;;;;5.15;3.63;;;;;;;7.55;58.25;99676.41;10444225;28;20092;-78
2022/05/31 02:47:57;;;;;;;5.57;3.90;;;;;;;7.38;58.59;99671.25;10442861;28;20059;-78
2022/05/31 02:52:59;;;;;;;4.80;3.78;;;;;;;7.32;58.74;99668.09;10443238;28;20514;-78
2022/05/31 02:58:02;;;;;;;6.95;3.72;;;;;;;7.40;58.71;99669.41;10444797;28;20556;-78
2022/05/31 03:03:05;;;;;;;10.13;4.90;;;;;;;7.33;58.55;99662.81;10442957;28;20053;-78
2022/05/31 03:08:08;;;;;;;5.05;3.67;;;;;;;7.15;58.87;99661.16;10439522;28;20515;-79
2022/05/31 03:13:14;;;;;;;6.32;3.65;;;;;;;7.18;58.74;99661.81;10436228;28;20671;-79
2022/05/31 03:18:29;;;;;;;6.47;3.55;;;;;;;7.19;59.36;99665.28;10436720;28;20103;-78
2022/05/31 03:23:43;;;;;;;5.68;3.60;;;;;;;7.24;59.31;99665.91;10436700;28;20076;-78
2022/05/31 03:28:47;;;;;;;7.07;3.58;;;;;;;7.28;58.88;99656.19;10436564;28;20099;-79
2022/05/31 03:33:49;;;;;;;5.18;3.53;;;;;;;7.28;58.81;99658.78;10436119;28;20658;-79
2022/05/31 03:38:51;;;;;;;7.50;4.00;;;;;;;7.17;58.52;99656.72;10434185;28;20052;-79
2022/05/31 03:43:53;;;;;;;5.53;3.65;;;;;;;7.19;58.96;99654.88;10437809;28;20060;-79
2022/05/31 03:49:01;;;;;;;5.00;3.70;;;;;;;7.20;58.78;99660.00;10439881;28;20141;-79
2022/05/31 03:54:03;;;;;;;6.00;3.70;;;;;;;7.11;58.67;99651.81;10432732;28;20453;-79
2022/05/31 03:59:05;;;;;;;4.97;3.53;;;;;;;7.23;58.57;99652.94;10435856;28;20053;-79
2022/05/31 04:04:07;;;;;;;5.20;3.42;;;;;;;7.49;58.11;99647.28;10432906;28;20132;-78
2022/05/31 04:09:09;;;;;;;7.45;3.42;;;;;;;7.61;57.92;99642.25;10435810;28;20049;-78
2022/05/31 04:14:15;;;;;;;4.75;3.47;;;;;;;7.78;57.70;99643.97;10433306;28;20133;-79
2022/05/31 04:19:17;;;;;;;4.82;3.50;;;;;;;8.28;56.58;99636.09;10435282;28;20453;-79
2022/05/31 04:24:22;;;;;;;4.45;3.35;;;;;;;9.83;53.95;99623.50;10431555;28;20088;-79
2022/05/31 04:29:24;;;;;;;8.48;2.90;;;;;;;12.95;47.96;99617.72;10432680;28;20498;-79
2022/05/31 04:34:27;;;;;;;5.90;3.15;;;;;;;13.33;46.17;99625.38;10432991;28;20335;-79
2022/05/31 04:39:28;;;;;;;5.22;2.92;;;;;;;13.86;45.36;99623.91;10433321;28;20614;-78
2022/05/31 04:44:30;;;;;;;4.82;2.95;;;;;;;14.48;43.78;99620.59;10426963;28;20084;-77
2022/05/31 04:49:33;;;;;;;5.90;3.05;;;;;;;16.12;40.83;99608.38;10428025;28;20155;-77
2022/05/31 04:54:34;;;;;;;4.38;2.88;;;;;;;17.56;38.28;99606.66;10425977;28;20076;-77
2022/05/31 04:59:36;;;;;;;6.80;2.85;;;;;;;19.10;36.05;99610.13;10428196;28;20156;-77
2022/05/31 05:04:38;;;;;;;4.50;2.40;;;;;;;20.47;33.32;99608.22;10427351;28;20142;-77
2022/05/31 05:09:40;;;;;;;7.05;2.65;;;;;;;21.50;31.77;99589.03;10427267;28;20060;-77
2022/05/31 05:14:42;;;;;;;5.18;2.65;;;;;;;21.92;31.04;99594.09;10422869;28;20144;-77
2022/05/31 05:19:44;;;;;;;5.07;2.45;;;;;;;22.59;29.56;99588.97;10421830;28;20053;-77
2022/05/31 05:24:46;;;;;;;5.43;2.47;;;;;;;18.43;34.75;99601.81;10424281;28;20061;-78
2022/05/31 05:36:00;;;;;;;7.55;2.70;;;;;;;15.05;40.18;99606.25;10425839;28;20060;-77
2022/05/31 05:41:02;;;;;;;5.75;2.90;;;;;;;14.30;40.51;99610.69;10426558;28;20137;-77
2022/05/31 05:46:20;;;;;;;5.70;3.00;;;;;;;13.66;42.25;99605.25;10425985;28;20056;-77
2022/05/31 05:51:31;;;;;;;7.72;3.05;;;;;;;13.37;43.03;99605.78;10429100;28;20041;-76
2022/05/31 05:56:33;;;;;;;8.95;3.30;;;;;;;13.40;42.83;99590.63;10426943;28;20132;-77
2022/05/31 06:01:45;;;;;;;6.15;2.80;;;;;;;13.40;44.35;99593.25;10425687;28;20057;-77
2022/05/31 06:07:13;;;;;;;7.50;3.60;;;;;;;13.30;43.90;99597.53;10433330;28;20048;-77
2022/05/31 06:12:19;;;;;;;7.50;3.10;;;;;;;13.47;44.11;99586.63;10432894;28;20123;-78
2022/05/31 06:17:26;;;;;;;6.85;3.63;;;;;;;13.21;44.90;99579.84;10432498;28;20131;-77
2022/05/31 06:22:29;;;;;;;6.70;2.85;;;;;;;13.09;45.42;99579.97;10432871;28;20052;-77
2022/05/31 06:27:32;;;;;;;5.68;3.10;;;;;;;13.30;45.41;99567.81;10433867;28;20162;-78
2022/05/31 06:32:34;;;;;;;6.47;3.10;;;;;;;13.04;46.23;99576.81;10434474;28;20162;-78
2022/05/31 06:37:36;;;;;;;6.00;3.40;;;;;;;13.01;46.50;99571.78;10431643;28;20149;-77
2022/05/31 06:42:40;;;;;;;7.15;3.00;;;;;;;13.22;46.33;99565.78;10433491;28;20056;-76
2022/05/31 06:47:42;;;;;;;6.10;3.00;;;;;;;13.22;46.45;99564.91;10436599;28;20088;-78
2022/05/31 06:58:07;;;;;;;8.65;2.97;;;;;;;13.68;46.21;99563.06;10433653;28;20073;-78
2022/05/31 07:03:09;;;;;;;6.10;3.13;;;;;;;13.91;45.81;99559.47;10434362;28;20146;-79
2022/05/31 07:08:11;;;;;;;7.22;3.00;;;;;;;14.16;45.20;99561.84;10425518;28;20072;-77
2022/05/31 07:13:13;;;;;;;5.03;2.83;;;;;;;14.77;44.46;99541.91;10432535;28;20084;-78
2022/05/31 07:18:15;;;;;;;7.03;3.08;;;;;;;15.69;42.60;99531.38;10429715;28;20061;-78
2022/05/31 07:23:16;;;;;;;6.60;2.63;;;;;;;17.23;41.30;99511.97;10431829;28;20167;-77
2022/05/31 07:28:19;;;;;;;6.18;2.33;;;;;;;18.83;38.12;99511.31;10433021;28;20136;-77
2022/05/31 07:33:21;;;;;;;6.93;2.33;;;;;;;20.15;36.01;99501.94;10431548;28;20665;-78
2022/05/31 07:38:41;;;;;;;5.60;2.33;;;;;;;20.66;33.97;99498.19;10429956;28;20141;-78
2022/05/31 07:43:43;;;;;;;6.63;2.67;;;;;;;22.17;31.98;99495.28;10428569;28;20052;-78
2022/05/31 07:48:45;;;;;;;5.45;2.10;;;;;;;22.27;31.33;99490.56;10426583;28;20067;-77
2022/05/31 07:53:47;;;;;;;7.95;2.40;;;;;;;22.62;30.56;99491.78;10426857;28;20083;-75
2022/05/31 07:58:50;;;;;;;6.60;2.22;;;;;;;23.25;29.33;99483.38;10428719;28;20138;-76
2022/05/31 08:03:53;;;;;;;5.40;2.03;;;;;;;23.54;29.11;99478.09;10429874;28;20554;-75
2022/05/31 08:08:56;;;;;;;6.80;2.50;;;;;;;23.27;28.91;99468.88;10427636;28;20092;-75
2022/05/31 08:13:59;;;;;;;6.88;2.08;;;;;;;22.94;29.14;99461.41;10427302;28;20057;-76
2022/05/31 08:19:02;;;;;;;4.95;2.00;;;;;;;23.15;29.25;99450.81;10425533;28;20592;-76
2022/05/31 08:24:06;;;;;;;4.68;2.00;;;;;;;23.08;28.74;99441.91;10427585;28;20492;-76
2022/05/31 08:29:28;;;;;;;7.25;2.00;;;;;;;23.29;29.22;99441.97;10427132;28;20069;-77
2022/05/31 08:34:30;;;;;;;5.50;1.80;;;;;;;23.23;28.87;99442.72;10428447;28;20076;-76
2022/05/31 08:39:32;;;;;;;5.95;1.98;;;;;;;23.75;28.83;99429.28;10428351;28;20056;-76
2022/05/31 08:44:42;;;;;;;6.32;1.83;;;;;;;23.68;28.95;99426.50;10423793;28;20053;-76
2022/05/31 09:00:44;;;;;;;6.95;1.83;;;;;;;24.58;27.56;99414.31;10426315;28;20128;-76
2022/05/31 09:06:06;;;;;;;6.57;2.55;;;;;;;24.27;26.70;99413.81;10426142;28;20055;-75
2022/05/31 09:11:29;;;;;;;4.80;1.63;;;;;;;24.07;28.47;99410.97;10423416;28;20075;-77
2022/05/31 09:16:46;;;;;;;6.75;1.98;;;;;;;24.27;27.31;99400.44;10424609;28;20056;-76
2022/05/31 09:21:50;;;;;;;7.70;2.22;;;;;;;24.66;27.24;99399.94;10424734;28;20045;-75
2022/05/31 09:27:09;;;;;;;3.85;1.67;;;;;;;24.27;27.92;99395.94;10425900;28;20498;-75
2022/05/31 09:32:36;;;;;;;4.65;1.60;;;;;;;23.61;27.91;99393.59;10425504;28;20119;-75
2022/05/31 09:38:20;;;;;;;5.68;1.73;;;;;;;23.00;28.28;99381.50;10424558;28;21096;-75
2022/05/31 09:43:39;;;;;;;4.80;1.85;;;;;;;23.39;29.00;99389.19;10434455;28;20226;-76
2022/05/31 09:48:46;;;;;;;;;;;;;;;23.73;28.21;99384.06;10435148;28;20916;-76
2022/05/31 09:59:12;;;;;;;6.72;1.67;;;;;;;22.39;30.23;99379.09;10435070;28;20110;-76
2022/05/31 10:04:34;;;;;;;4.63;1.83;;;;;;;21.71;30.91;99374.56;10432949;28;20529;-77
2022/05/31 10:09:43;;;;;;;3.33;1.60;;;;;;;21.66;30.27;99376.09;10431869;28;20150;-77
2022/05/31 10:14:49;;;;;;;3.38;1.45;;;;;;;21.82;30.10;99370.69;10434130;28;20095;-77
2022/05/31 10:20:25;;;;;;;5.10;1.50;;;;;;;21.55;29.20;99373.81;10431065;28;20061;-75
2022/05/31 10:25:34;;;;;;;3.25;1.50;;;;;;;21.79;28.65;99366.53;10429824;28;20522;-76
2022/05/31 10:30:37;;;;;;;5.10;1.70;;;;;;;21.72;29.43;99364.75;10427223;28;20045;-75
2022/05/31 10:35:43;;;;;;;4.93;1.52;;;;;;;21.07;30.20;99372.16;10433108;28;20103;-75
2022/05/31 10:40:45;;;;;;;3.60;1.60;;;;;;;20.72;29.88;99370.78;10433220;28;20080;-76
2022/05/31 10:46:38;;;;;;;3.05;1.50;;;;;;;20.65;30.84;99376.94;10431934;28;20056;-75
2022/05/31 10:51:50;;;;;;;3.72;1.50;;;;;;;21.03;30.70;99369.03;10425109;28;20040;-76
2022/05/31 10:57:13;;;;;;;8.18;1.65;;;;;;;21.29;30.84;99376.75;10429986;28;20132;-75
2022/05/31 11:02:18;;;;;;;5.47;1.75;;;;;;;21.25;30.63;99386.09;10427380;28;20549;-76
2022/05/31 11:13:46;;;;;;;3.72;1.60;;;;;;;21.45;27.12;99386.53;10428157;28;20154;-75
2022/05/31 11:19:04;;;;;;;2.85;1.48;;;;;;;22.10;27.37;99386.97;10429160;28;20153;-75
2022/05/31 11:24:46;;;;;;;2.28;1.35;;;;;;;22.45;24.86;99381.03;10429427;28;20057;-75
2022/05/31 11:30:26;;;;;;;1.73;1.20;;;;;;;23.02;24.02;99376.78;10429305;28;20052;-75
2022/05/31 11:35:37;;;;;;;3.65;1.30;;;;;;;23.40;23.75;99382.81;10414662;28;20080;-75
2022/05/31 11:40:46;;;;;;;2.17;1.20;;;;;;;22.68;24.34;99374.63;10429708;28;20457;-76
2022/05/31 11:45:51;;;;;;;2.55;1.30;;;;;;;22.85;24.00;99353.97;10428409;28;20088;-76
2022/05/31 11:51:18;;;;;;;3.55;1.25;;;;;;;22.76;23.41;99355.06;10428740;28;20076;-76
2022/05/31 11:56:51;;;;;;;3.45;1.33;;;;;;;22.63;23.62;99365.53;10427543;28;20088;-76
2022/05/31 12:01:56;;;;;;;1.98;1.30;;;;;;;22.44;23.12;99366.88;10426068;28;20059;-75
2022/05/31 12:07:07;;;;;;;3.45;1.40;;;;;;;22.21;23.36;99366.06;10427826;28;20422;-76
2022/05/31 12:12:33;;;;;;;4.53;1.33;;;;;;;22.10;23.07;99360.34;10428036;28;20191;-76
2022/05/31 12:17:50;;;;;;;2.05;1.20;;;;;;;22.70;22.76;99359.25;10426827;28;20146;-76
2022/05/31 12:23:00;;;;;;;4.43;1.60;;;;;;;22.75;22.84;99349.94;10427883;28;20395;-76
2022/05/31 12:28:21;;;;;;;5.85;1.50;;;;;;;23.18;23.03;99346.41;10427006;28;20560;-77
2022/05/31 12:33:43;;;;;;;3.78;1.27;;;;;;;23.61;22.39;99342.88;10423592;28;20562;-76
2022/05/31 12:39:20;;;;;;;3.97;1.40;;;;;;;23.88;22.85;99344.78;10427037;28;20048;-76
2022/05/31 12:44:34;;;;;;;2.70;1.40;;;;;;;23.64;22.44;99341.63;10426858;28;20049;-76
2022/05/31 12:49:47;;;;;;;2.20;1.40;;;;;;;23.82;22.80;99329.50;10425866;28;20149;-77
2022/05/31 12:54:53;;;;;;;2.75;1.40;;;;;;;23.85;23.19;99320.28;10425003;28;20136;-75
2022/05/31 12:59:57;;;;;;;3.40;1.33;;;;;;;23.81;23.44;99329.72;10425179;28;20060;-76
2022/05/31 13:05:06;;;;;;;4.78;1.50;;;;;;;23.43;24.65;99332.59;10418417;28;20774;-76
2022/05/31 13:10:32;;;;;;;1.97;1.30;;;;;;;23.00;25.99;99332.66;10424263;28;20160;-75
2022/05/31 13:21:03;;;;;;;1.98;1.30;;;;;;;22.24;28.38;99314.25;10425491;28;20055;-77
2022/05/31 13:26:06;;;;;;;4.03;1.40;;;;;;;21.57;28.74;99308.78;10424632;28;20056;-76
2022/05/31 13:31:16;;;;;;;3.90;1.40;;;;;;;21.09;29.83;99325.81;10425687;28;20552;-75
2022/05/31 13:36:51;;;;;;;4.63;1.45;;;;;;;20.96;29.12;99352.13;10424564;28;20077;-75
2022/05/31 13:41:56;;;;;;;3.92;1.45;;;;;;;20.94;29.86;99404.63;10380511;28;20045;-75
2022/05/31 13:47:03;;;;;;;7.35;1.60;;;;;;;20.11;30.61;99455.47;10423545;28;20490;-76
2022/05/31 13:52:25;;;;;;;4.15;1.58;;;;;;;19.30;38.41;99375.59;10422982;28;20376;-76
2022/05/31 13:57:28;;;;;;;4.78;1.35;;;;;;;18.92;38.40;99365.47;10420046;28;20083;-75
2022/05/31 14:02:49;;;;;;;5.10;1.67;;;;;;;19.38;39.58;99402.16;10424938;28;20057;-75
2022/05/31 14:07:53;;;;;;;3.03;1.60;;;;;;;20.29;37.60;99417.13;10421922;28;20053;-76
2022/05/31 14:13:02;;;;;;;2.58;1.35;;;;;;;20.67;35.75;99426.28;10424746;28;20494;-76
2022/05/31 14:18:08;;;;;;;5.20;1.80;;;;;;;20.42;37.09;99437.06;10425893;28;20052;-76
2022/05/31 14:23:23;;;;;;;4.00;1.85;;;;;;;20.16;38.51;99438.03;10424460;28;20103;-76
2022/05/31 14:28:28;;;;;;;4.13;1.70;;;;;;;20.33;38.05;99444.19;10430920;28;20581;-76
2022/05/31 14:33:35;;;;;;;3.40;1.58;;;;;;;20.05;38.97;99426.91;10437602;28;20790;-76
2022/05/31 14:38:46;;;;;;;6.78;1.63;;;;;;;19.55;38.99;99432.22;10429801;28;20503;-77
2022/05/31 14:43:57;;;;;;;4.57;1.70;;;;;;;19.79;38.05;99429.63;10428093;28;20045;-76
2022/05/31 14:49:12;;;;;;;5.80;1.70;;;;;;;20.25;36.34;99426.41;10429829;28;20061;-77
2022/05/31 14:54:38;;;;;;;4.03;1.60;;;;;;;20.07;34.87;99423.06;10429842;28;21011;-77
2022/05/31 14:59:40;;;;;;;4.38;1.70;;;;;;;20.10;35.49;99419.28;10430811;28;20114;-77
2022/05/31 15:04:48;;;;;;;3.97;1.63;;;;;;;19.55;36.10;99426.06;10427540;28;20139;-76
2022/05/31 15:10:11;;;;;;;3.90;1.60;;;;;;;20.05;35.05;99414.44;10428533;28;20175;-76
2022/05/31 15:20:37;;;;;;;3.42;1.38;;;;;;;20.23;34.40;99409.81;10428577;28;20052;-77
2022/05/31 15:25:41;;;;;;;3.60;1.60;;;;;;;19.76;34.67;99400.78;10423356;28;20045;-76
2022/05/31 15:30:43;;;;;;;4.53;1.35;;;;;;;19.74;34.75;99407.25;10425920;28;20432;-77
2022/05/31 15:36:05;;;;;;;4.43;1.40;;;;;;;19.55;34.30;99402.19;10426313;28;20143;-76
2022/05/31 15:41:12;;;;;;;4.25;1.60;;;;;;;19.95;34.89;99407.66;10420837;28;20052;-75
2022/05/31 15:46:14;;;;;;;6.32;1.50;;;;;;;20.06;34.15;99402.00;10427762;28;20114;-75
2022/05/31 15:51:23;;;;;;;5.40;1.70;;;;;;;20.15;33.50;99399.19;10421678;28;20063;-75
2022/05/31 15:56:30;;;;;;;5.78;1.50;;;;;;;20.40;33.88;99397.38;10421513;28;20053;-76
2022/05/31 16:01:32;;;;;;;6.68;1.75;;;;;;;20.28;33.73;99404.84;10425089;28;20410;-76
2022/05/31 16:06:34;;;;;;;3.17;1.40;;;;;;;20.49;33.08;99398.19;10422572;28;20213;-75
2022/05/31 16:11:35;;;;;;;3.85;1.40;;;;;;;20.57;32.42;99388.41;10420770;28;20478;-75
2022/05/31 16:16:37;;;;;;;3.25;1.50;;;;;;;20.64;32.00;99400.03;10418933;28;20084;-75
2022/05/31 16:21:41;;;;;;;4.88;1.20;;;;;;;20.56;31.58;99400.00;10424393;28;20467;-75
2022/05/31 16:26:42;;;;;;;4.40;1.50;;;;;;;20.64;31.59;99405.34;10420244;28;20057;-76
2022/05/31 16:31:48;;;;;;;3.67;1.30;;;;;;;20.57;31.58;99408.81;10425292;28;20057;-76
2022/05/31 16:36:53;;;;;;;3.22;1.40;;;;;;;20.80;31.67;99408.00;10423242;28;20114;-75
2022/05/31 16:41:56;;;;;;;4.72;1.40;;;;;;;20.53;31.05;99408.31;10424034;28;20575;-76
2022/05/31 16:46:58;;;;;;;2.17;1.40;;;;;;;20.04;31.93;99409.31;10418762;28;20541;-76
2022/05/31 16:52:00;;;;;;;3.33;1.38;;;;;;;19.91;32.16;99403.66;10419206;28;20063;-76
2022/05/31 16:57:09;;;;;;;4.07;1.42;;;;;;;20.13;32.85;99411.78;10426769;28;20675;-75
2022/05/31 17:02:18;;;;;;;2.50;1.40;;;;;;;20.26;31.70;99416.63;10420260;28;20200;-75
2022/05/31 17:18:03;;;;;;;2.15;1.30;;;;;;;20.29;31.95;99422.44;10423700;28;20402;-74
2022/05/31 17:23:45;;;;;;;5.72;1.83;;;;;;;20.14;31.61;99412.63;10411435;28;20605;-76
2022/05/31 17:28:53;;;;;;;3.30;1.38;;;;;;;19.93;32.32;99422.91;10409376;28;20049;-76
2022/05/31 17:33:58;;;;;;;4.03;1.50;;;;;;;19.99;31.86;99435.53;10409450;28;20168;-75
2022/05/31 17:39:08;;;;;;;5.95;1.50;;;;;;;19.95;31.79;99440.31;10407610;28;20112;-75
2022/05/31 17:44:15;;;;;;;4.53;1.60;;;;;;;19.91;31.15;99438.16;10411347;28;20048;-76
2022/05/31 17:49:16;;;;;;;3.17;1.67;;;;;;;19.77;31.71;99449.34;10419677;28;20149;-75
2022/05/31 17:54:27;;;;;;;3.63;1.20;;;;;;;19.73;32.43;99446.19;10419637;28;20065;-76
2022/05/31 17:59:29;;;;;;;3.60;1.60;;;;;;;19.40;32.68;99455.00;10420421;28;20482;-75
2022/05/31 18:04:31;;;;;;;7.45;1.60;;;;;;;19.31;32.18;99459.47;10428528;28;20059;-76
2022/05/31 18:09:37;;;;;;;3.15;1.55;;;;;;;19.30;32.09;99459.63;10428243;28;20041;-75
2022/05/31 18:14:39;;;;;;;2.58;1.50;;;;;;;19.08;33.07;99462.81;10430928;28;20152;-75
2022/05/31 18:19:41;;;;;;;3.63;1.70;;;;;;;18.81;34.38;99479.66;10428246;28;20528;-76
2022/05/31 18:24:46;;;;;;;3.30;1.50;;;;;;;18.56;35.23;99477.81;10431601;28;20125;-75
2022/05/31 18:29:50;;;;;;;4.20;1.73;;;;;;;18.43;35.76;99480.84;10428251;28;20128;-75
2022/05/31 18:35:08;;;;;;;3.13;1.70;;;;;;;18.40;37.02;99493.56;10431284;28;21099;-74
2022/05/31 18:45:47;;;;;;;6.40;1.83;;;;;;;18.31;37.02;99495.31;10417710;28;20139;-74
2022/05/31 18:50:49;;;;;;;3.55;1.63;;;;;;;18.12;37.44;99506.00;10430241;28;20052;-75
2022/05/31 18:55:51;;;;;;;3.80;1.90;;;;;;;18.10;38.00;99502.66;10430545;28;20163;-75
2022/05/31 19:00:53;;;;;;;2.63;1.42;;;;;;;18.03;38.80;99498.13;10423720;28;20136;-76
2022/05/31 19:05:56;;;;;;;4.65;1.80;;;;;;;17.88;39.27;99508.38;10409314;28;20057;-76
2022/05/31 19:10:58;;;;;;;5.70;3.20;;;;;;;17.54;40.09;99502.00;10421687;28;20135;-76
2022/05/31 19:16:01;;;;;;;6.40;2.65;;;;;;;17.22;40.96;99509.47;10429308;28;20068;-76
2022/05/31 19:21:04;;;;;;;5.45;2.10;;;;;;;16.90;41.68;99501.88;10431031;28;20462;-76
2022/05/31 19:26:06;;;;;;;4.60;2.10;;;;;;;16.60;42.57;99515.28;10430657;28;20057;-76
2022/05/31 19:31:12;;;;;;;4.25;2.00;;;;;;;16.32;42.92;99527.47;10423128;28;20064;-76
2022/05/31 19:36:14;;;;;;;6.93;2.25;;;;;;;16.11;43.40;99537.28;10418292;28;20711;-76
2022/05/31 19:41:17;;;;;;;4.18;2.40;;;;;;;15.86;44.69;99546.53;10414805;28;20612;-76
2022/05/31 19:46:19;;;;;;;4.57;2.08;;;;;;;15.64;45.04;99541.47;10408988;28;20537;-76
2022/05/31 19:51:26;;;;;;;4.22;2.35;;;;;;;15.54;45.71;99550.28;10411451;28;20056;-76
2022/05/31 19:56:28;;;;;;;4.47;2.25;;;;;;;15.35;46.14;99551.00;10444876;28;20506;-75
2022/05/31 20:01:30;;;;;;;7.63;2.95;;;;;;;15.29;46.21;99555.00;10429188;28;20410;-75
2022/05/31 20:06:32;;;;;;;5.63;2.53;;;;;;;15.19;46.29;99572.53;10429267;28;20103;-75
2022/05/31 20:11:36;;;;;;;4.05;2.10;;;;;;;15.05;47.08;99579.94;10429489;28;20052;-76
2022/05/31 20:16:39;;;;;;;5.22;2.33;;;;;;;14.91;47.31;99573.19;10425811;28;20059;-76
2022/05/31 20:21:43;;;;;;;4.20;2.25;;;;;;;14.66;47.76;99581.44;10430498;28;20566;-75
2022/05/31 20:26:46;;;;;;;4.15;2.10;;;;;;;14.49;48.52;99589.88;10427850;28;20080;-76
2022/05/31 20:31:47;;;;;;;5.38;2.20;;;;;;;14.31;48.81;99586.88;10425175;28;20190;-75
2022/05/31 20:36:50;;;;;;;4.05;2.03;;;;;;;14.10;49.42;99591.25;10427714;28;20478;-75
2022/05/31 20:41:56;;;;;;;6.63;2.40;;;;;;;13.89;49.93;99587.69;10423830;28;20128;-76
2022/05/31 20:46:58;;;;;;;4.40;2.00;;;;;;;13.80;50.23;99579.69;10425914;28;20391;-76
2022/05/31 20:52:01;;;;;;;5.90;2.00;;;;;;;13.75;50.23;99587.94;10425896;28;20745;-75
2022/05/31 20:57:04;;;;;;;3.42;2.00;;;;;;;13.58;50.68;99601.53;10428599;28;20134;-76
2022/05/31 21:02:08;;;;;;;3.88;2.50;;;;;;;13.46;50.74;99602.47;10443270;28;20491;-76
2022/05/31 21:07:10;;;;;;;6.05;2.20;;;;;;;13.28;50.99;99611.72;10429017;28;20055;-75
2022/05/31 21:12:12;;;;;;;4.97;2.25;;;;;;;13.26;51.05;99613.63;10426534;28;20048;-75
2022/05/31 21:17:16;;;;;;;3.20;2.10;;;;;;;13.28;51.09;99616.97;10428278;28;20215;-75
2022/05/31 21:22:36;;;;;;;7.15;2.22;;;;;;;13.27;51.13;99620.56;10428829;28;20103;-75
2022/05/31 21:27:38;;;;;;;4.07;2.20;;;;;;;13.18;51.04;99623.88;10428514;28;20115;-75
2022/05/31 21:32:40;;;;;;;3.63;2.28;;;;;;;13.09;51.21;99619.34;10428136;28;20103;-76
2022/05/31 21:37:42;;;;;;;4.53;2.22;;;;;;;13.01;51.42;99630.38;10436506;28;20158;-76
2022/05/31 21:42:44;;;;;;;3.53;2.17;;;;;;;12.90;51.61;99631.19;10434254;28;20060;-75
2022/05/31 21:47:45;;;;;;;3.58;2.30;;;;;;;12.70;52.14;99631.81;10436298;28;20073;-75
2022/05/31 21:52:48;;;;;;;5.65;2.20;;;;;;;12.61;52.64;99642.13;10434953;28;20520;-75
2022/05/31 21:57:50;;;;;;;6.13;2.63;;;;;;;12.49;52.82;99650.91;10434908;28;21003;-75
2022/05/31 22:02:51;;;;;;;4.28;2.28;;;;;;;12.41;52.74;99654.09;10435620;28;20588;-75
2022/05/31 22:07:53;;;;;;;4.03;2.30;;;;;;;12.32;52.81;99652.09;10434750;28;20110;-75
2022/05/31 22:12:55;;;;;;;5.32;2.20;;;;;;;12.27;53.04;99646.34;10435986;28;20165;-75
2022/05/31 22:17:58;;;;;;;4.30;2.38;;;;;;;12.14;52.97;99659.47;10432759;28;20140;-75
2022/05/31 22:22:59;;;;;;;4.90;2.53;;;;;;;11.84;53.68;99663.38;10435215;28;20092;-76
2022/05/31 22:28:01;;;;;;;4.97;2.40;;;;;;;11.83;54.29;99669.56;10432754;28;20119;-76
2022/05/31 22:33:04;;;;;;;6.15;2.75;;;;;;;12.07;53.88;99659.97;10435648;28;20126;-75
2022/05/31 22:38:07;;;;;;;4.32;2.45;;;;;;;12.05;53.73;99662.72;10434431;28;20543;-75
2022/05/31 22:43:13;;;;;;;3.90;2.22;;;;;;;11.81;54.41;99664.44;10435579;28;20136;-76
2022/05/31 22:48:15;;;;;;;4.57;2.40;;;;;;;11.48;54.79;99665.91;10432069;28;20057;-75
2022/05/31 22:53:17;;;;;;;3.70;2.60;;;;;;;11.34;55.53;99671.22;10433659;28;20045;-75
2022/05/31 22:58:36;;;;;;;6.00;2.55;;;;;;;11.65;55.66;99687.38;10433436;28;20119;-75
2022/05/31 23:03:40;;;;;;;4.10;2.47;;;;;;;11.91;55.13;99725.75;10432477;28;20574;-75
2022/05/31 23:08:42;;;;;;;5.95;2.90;;;;;;;11.94;54.67;99722.06;10432432;28;20100;-75
2022/05/31 23:13:44;;;;;;;3.35;2.42;;;;;;;11.98;55.00;99715.69;10433302;28;20152;-75
2022/05/31 23:18:49;;;;;;;4.47;2.60;;;;;;;11.50;56.28;99693.63;10431249;28;20053;-75
2022/05/31 23:23:54;;;;;;;4.53;2.63;;;;;;;11.63;56.95;99693.66;10431615;28;20045;-76
2022/05/31 23:29:02;;;;;;;6.13;2.60;;;;;;;11.54;57.29;99689.88;10447324;28;20088;-75
2022/05/31 23:34:12;;;;;;;5.82;2.55;;;;;;;11.38;57.49;99696.25;10431803;28;20068;-76
2022/05/31 23:39:14;;;;;;;;;;;;;;;11.18;58.14;99689.72;10430623;28;20600;-76
2022/05/31 23:44:16;;;;;;;4.70;2.50;;;;;;;11.69;57.02;99686.22;10432049;28;19956;-75
2022/05/31 23:49:18;;;;;;;5.40;3.15;;;;;;;11.78;56.49;99682.16;10426089;28;20087;-76
2022/05/31 23:54:20;;;;;;;4.38;3.03;;;;;;;11.95;56.54;99690.50;10429044;28;20053;-76
2022/05/31 23:59:23;;;;;;;6.25;2.88;;;;;;;12.06;56.38;99684.53;10429584;28;20520;-76
